Time;durP1;ratioP1;P1;durP2;ratioP2;P2;SDS_P1;SDS_P2;PMS_P1;PMS_P2;Temp;Humidity;BMP_temperature;BMP_pressure;BME280_temperature;BME280_humidity;BME280_pressure;Samples;Min_cycle;Max_cycle;Signal;HPM_P1;HPM_P2
2023/03/21 00:03:02;;;;;;;9.80;5.50;;;11.90;99.90;;;;;;10100754;28;20029;-58
2023/03/21 00:07:53;;;;;;;6.50;4.10;;;11.80;99.90;;;;;;10099740;28;20033;-56
2023/03/21 00:12:44;;;;;;;8.50;4.93;;;11.80;99.90;;;;;;10076734;28;20045;-58
2023/03/21 00:17:34;;;;;;;8.57;4.88;;;11.70;99.90;;;;;;10049770;28;20044;-54
2023/03/21 00:22:27;;;;;;;9.45;4.65;;;11.60;99.90;;;;;;10068936;28;20064;-55
2023/03/21 00:27:20;;;;;;;11.13;4.85;;;11.60;99.90;;;;;;10096853;28;20063;-56
2023/03/21 00:32:11;;;;;;;8.88;4.57;;;11.40;99.90;;;;;;10085525;28;20049;-54
2023/03/21 00:37:01;;;;;;;7.25;4.97;;;11.50;99.90;;;;;;10099129;28;20098;-54
2023/03/21 00:41:52;;;;;;;11.25;4.93;;;11.40;99.90;;;;;;10084846;28;20033;-54
2023/03/21 00:46:43;;;;;;;7.82;4.95;;;11.40;99.90;;;;;;10088199;28;20669;-59
2023/03/21 00:51:33;;;;;;;8.02;5.35;;;11.30;99.90;;;;;;10081229;28;20056;-56
2023/03/21 00:56:24;;;;;;;10.73;4.88;;;11.30;99.90;;;;;;10086024;28;20376;-61
2023/03/21 01:01:14;;;;;;;7.53;5.03;;;11.30;99.90;;;;;;10082080;28;20029;-62
2023/03/21 01:06:05;;;;;;;10.07;5.88;;;11.30;99.90;;;;;;10097896;28;20033;-61
2023/03/21 01:11:02;;;;;;;7.93;5.22;;;11.20;99.90;;;;;;10097628;28;20031;-59
2023/03/21 01:15:55;;;;;;;7.60;5.15;;;11.20;99.90;;;;;;10097485;28;20037;-57
2023/03/21 01:20:46;;;;;;;11.80;5.68;;;11.10;99.90;;;;;;10096099;28;20037;-59
2023/03/21 01:25:37;;;;;;;11.88;7.05;;;11.10;99.90;;;;;;10093678;28;20026;-59
2023/03/21 01:30:27;;;;;;;7.45;5.07;;;11.10;99.90;;;;;;10088181;28;20031;-61
2023/03/21 01:35:18;;;;;;;11.32;5.97;;;11.10;99.90;;;;;;10087510;28;20056;-57
2023/03/21 01:40:19;;;;;;;10.00;6.28;;;11.20;99.90;;;;;;10097344;28;20486;-61
2023/03/21 01:45:47;;;;;;;8.10;5.35;;;11.20;99.90;;;;;;10069634;28;20051;-62
2023/03/21 01:50:38;;;;;;;10.85;5.53;;;11.30;99.90;;;;;;10070966;28;20450;-58
2023/03/21 01:55:30;;;;;;;11.05;6.25;;;11.30;99.90;;;;;;10085421;28;20439;-61
2023/03/21 02:00:25;;;;;;;9.20;5.90;;;11.30;99.90;;;;;;10085697;28;20025;-57
2023/03/21 02:05:20;;;;;;;10.03;4.93;;;11.30;99.90;;;;;;10092002;28;20044;-57
2023/03/21 02:10:13;;;;;;;8.80;4.80;;;11.20;99.90;;;;;;10092666;28;20862;-60
2023/03/21 02:15:06;;;;;;;8.25;4.72;;;11.20;99.90;;;;;;10096843;28;20525;-54
2023/03/21 02:20:10;;;;;;;6.47;4.30;;;11.10;99.90;;;;;;10096754;28;20025;-62
2023/03/21 02:25:35;;;;;;;6.95;4.28;;;11.10;99.90;;;;;;10096552;28;20150;-60
2023/03/21 02:30:39;;;;;;;9.23;3.97;;;11.10;99.90;;;;;;10072148;28;20056;-64
2023/03/21 02:35:48;;;;;;;8.57;4.28;;;10.90;99.90;;;;;;10087001;28;20036;-62
2023/03/21 02:40:46;;;;;;;6.25;3.53;;;10.80;99.90;;;;;;10065794;28;20025;-55
2023/03/21 02:46:05;;;;;;;7.03;3.63;;;10.70;99.90;;;;;;10078557;28;20151;-61
2023/03/21 02:50:59;;;;;;;8.02;3.70;;;10.70;99.90;;;;;;10078192;28;20049;-55
2023/03/21 02:55:52;;;;;;;6.70;3.25;;;10.50;99.90;;;;;;10085012;28;20025;-56
2023/03/21 03:00:44;;;;;;;5.85;3.88;;;10.30;99.90;;;;;;10089938;28;20029;-55
2023/03/21 03:05:40;;;;;;;5.40;3.35;;;10.30;99.90;;;;;;10094923;28;20120;-59
2023/03/21 03:11:10;;;;;;;5.70;3.42;;;10.40;99.90;;;;;;10095400;28;20626;-56
2023/03/21 03:16:06;;;;;;;3.95;2.63;;;10.20;99.90;;;;;;10098003;28;20060;-54
2023/03/21 03:21:27;;;;;;;4.70;3.10;;;10.20;99.90;;;;;;10099649;28;20384;-56
2023/03/21 03:26:33;;;;;;;6.35;3.33;;;10.10;99.90;;;;;;10094046;28;20036;-58
2023/03/21 03:31:30;;;;;;;4.13;3.45;;;9.90;99.90;;;;;;10090995;28;20069;-54
2023/03/21 03:36:26;;;;;;;4.82;2.58;;;10.00;99.90;;;;;;10100191;28;20043;-55
2023/03/21 03:41:21;;;;;;;4.18;2.85;;;9.90;99.90;;;;;;10092213;28;20033;-53
2023/03/21 03:46:18;;;;;;;3.67;2.57;;;9.90;99.90;;;;;;10087081;28;20502;-54
2023/03/21 03:51:21;;;;;;;4.60;2.97;;;9.90;99.90;;;;;;10085260;28;20392;-55
2023/03/21 03:56:13;;;;;;;3.20;2.90;;;9.90;99.90;;;;;;10074115;28;20169;-53
2023/03/21 04:01:06;;;;;;;4.18;2.95;;;9.80;99.90;;;;;;10077801;28;20032;-53
2023/03/21 04:05:56;;;;;;;4.40;2.78;;;9.70;99.90;;;;;;10067473;28;20088;-56
2023/03/21 04:10:47;;;;;;;4.97;3.22;;;9.50;99.90;;;;;;10084838;28;20383;-55
2023/03/21 04:15:38;;;;;;;5.15;3.38;;;9.50;99.90;;;;;;10089835;28;20115;-53
2023/03/21 04:20:29;;;;;;;5.43;3.33;;;9.40;99.90;;;;;;10093456;28;20116;-57
2023/03/21 04:25:19;;;;;;;4.35;2.42;;;9.40;99.90;;;;;;10099176;28;20495;-54
2023/03/21 04:30:11;;;;;;;5.75;2.95;;;9.40;99.90;;;;;;10086297;28;20022;-54
2023/03/21 04:35:01;;;;;;;3.08;2.70;;;9.40;99.90;;;;;;10082438;28;20112;-54
2023/03/21 04:39:52;;;;;;;3.95;2.47;;;9.30;99.90;;;;;;10087105;28;20108;-56
2023/03/21 04:44:44;;;;;;;5.15;2.95;;;9.30;99.90;;;;;;10075303;28;20031;-55
2023/03/21 04:49:35;;;;;;;4.35;2.53;;;9.30;99.90;;;;;;10082328;28;20495;-54
2023/03/21 04:54:25;;;;;;;4.80;3.42;;;9.30;99.90;;;;;;10086687;28;20033;-52
2023/03/21 04:59:17;;;;;;;4.65;3.15;;;9.20;99.90;;;;;;10098200;28;20017;-56
2023/03/21 05:04:09;;;;;;;3.97;3.10;;;9.20;99.90;;;;;;10071315;28;20268;-57
2023/03/21 05:09:04;;;;;;;4.68;2.45;;;9.10;99.90;;;;;;10098077;28;20092;-54
2023/03/21 05:13:54;;;;;;;3.70;2.70;;;9.00;99.90;;;;;;10098371;28;20047;-57
2023/03/21 05:18:49;;;;;;;5.75;3.15;;;9.10;99.90;;;;;;10091110;28;20116;-59
2023/03/21 05:23:40;;;;;;;4.80;3.38;;;9.10;99.90;;;;;;10097486;28;20192;-55
2023/03/21 05:28:30;;;;;;;6.35;3.17;;;9.20;99.90;;;;;;10096961;28;20226;-55
2023/03/21 05:33:21;;;;;;;4.30;2.90;;;9.10;99.90;;;;;;10071465;28;20470;-55
2023/03/21 05:38:11;;;;;;;5.47;3.15;;;9.10;99.90;;;;;;10091999;28;20029;-55
2023/03/21 05:43:02;;;;;;;4.75;3.42;;;9.00;99.90;;;;;;10074768;28;20030;-55
2023/03/21 05:47:53;;;;;;;5.93;3.30;;;8.90;99.90;;;;;;10096041;28;20457;-59
2023/03/21 05:52:43;;;;;;;6.95;2.97;;;9.00;99.90;;;;;;10082631;28;20045;-53
2023/03/21 05:57:38;;;;;;;5.55;3.38;;;8.90;99.90;;;;;;10083525;28;20032;-55
2023/03/21 06:02:28;;;;;;;5.53;2.63;;;9.00;99.90;;;;;;10080773;28;20029;-55
2023/03/21 06:07:19;;;;;;;4.65;2.78;;;9.10;99.90;;;;;;10089493;28;20335;-56
2023/03/21 06:12:11;;;;;;;6.85;3.67;;;9.10;99.90;;;;;;10089518;28;20117;-57
2023/03/21 06:17:01;;;;;;;4.03;2.28;;;9.10;99.90;;;;;;10053653;28;20534;-55
2023/03/21 06:21:52;;;;;;;5.30;2.70;;;9.30;99.90;;;;;;10058730;28;20030;-55
2023/03/21 06:26:43;;;;;;;4.22;2.28;;;9.30;99.90;;;;;;10078891;28;20435;-54
2023/03/21 06:31:34;;;;;;;3.47;2.33;;;9.40;99.90;;;;;;10070039;28;20052;-54
2023/03/21 06:36:25;;;;;;;3.88;2.55;;;9.60;99.90;;;;;;10094449;28;20086;-55
2023/03/21 06:41:16;;;;;;;4.05;2.70;;;9.70;99.90;;;;;;10087455;28;20104;-55
2023/03/21 06:46:07;;;;;;;4.13;2.53;;;9.90;99.90;;;;;;10080957;28;20017;-56
2023/03/21 06:50:58;;;;;;;4.28;2.72;;;10.00;99.90;;;;;;10082050;28;20491;-60
2023/03/21 06:55:53;;;;;;;4.72;2.58;;;9.90;99.90;;;;;;10091331;28;20040;-60
2023/03/21 07:00:44;;;;;;;6.03;3.67;;;9.90;99.90;;;;;;10095304;28;20021;-58
2023/03/21 07:05:35;;;;;;;4.38;3.00;;;10.10;99.90;;;;;;10087164;28;20068;-55
2023/03/21 07:10:26;;;;;;;3.90;3.42;;;10.20;99.90;;;;;;10095799;28;20030;-54
2023/03/21 07:15:16;;;;;;;4.55;2.83;;;10.30;99.90;;;;;;10098224;28;20394;-55
2023/03/21 07:20:08;;;;;;;5.43;3.10;;;10.40;99.90;;;;;;10085832;28;20025;-56
2023/03/21 07:24:59;;;;;;;6.75;3.88;;;10.30;99.90;;;;;;10079850;28;20057;-57
2023/03/21 07:29:49;;;;;;;4.90;3.67;;;10.70;99.90;;;;;;10054060;28;20065;-55
2023/03/21 07:34:40;;;;;;;6.13;3.83;;;10.90;99.90;;;;;;10066628;28;20426;-60
2023/03/21 07:39:32;;;;;;;5.35;4.00;;;11.10;99.90;;;;;;10063182;28;20163;-59
2023/03/21 07:44:23;;;;;;;6.75;4.13;;;11.10;99.90;;;;;;10063079;28;20499;-59
2023/03/21 07:49:13;;;;;;;7.55;4.28;;;11.20;99.90;;;;;;10061268;28;20029;-58
2023/03/21 07:54:04;;;;;;;5.57;3.22;;;11.40;99.90;;;;;;10060802;28;20033;-59
2023/03/21 07:58:55;;;;;;;5.90;3.70;;;11.50;99.90;;;;;;10058514;28;20065;-61
2023/03/21 08:03:46;;;;;;;5.95;4.43;;;11.60;99.90;;;;;;10059245;28;20017;-62
2023/03/21 08:08:37;;;;;;;5.43;3.60;;;11.70;99.90;;;;;;10059273;28;20106;-59
2023/03/21 08:13:28;;;;;;;6.65;4.57;;;11.70;99.90;;;;;;10058897;28;20118;-59
2023/03/21 08:18:18;;;;;;;6.00;3.53;;;11.80;99.90;;;;;;10058672;28;20025;-58
2023/03/21 08:23:09;;;;;;;5.68;2.63;;;11.70;99.90;;;;;;10059794;28;20037;-59
2023/03/21 08:28:00;;;;;;;4.55;3.05;;;11.50;99.90;;;;;;10060494;28;20021;-60
2023/03/21 08:32:54;;;;;;;4.97;2.72;;;11.60;99.90;;;;;;10058513;28;20396;-59
2023/03/21 08:37:45;;;;;;;3.30;2.50;;;11.80;99.90;;;;;;10059808;28;20017;-62
2023/03/21 08:42:37;;;;;;;5.40;3.05;;;12.10;99.90;;;;;;10059142;28;20041;-59
2023/03/21 08:47:27;;;;;;;4.78;2.92;;;12.00;99.90;;;;;;10061217;28;20168;-58
2023/03/21 08:52:18;;;;;;;4.13;2.08;;;12.20;99.90;;;;;;10059191;28;20151;-61
2023/03/21 08:57:09;;;;;;;3.85;2.97;;;12.20;99.90;;;;;;10057888;28;20025;-59
2023/03/21 09:02:00;;;;;;;4.60;2.78;;;12.40;99.90;;;;;;10057975;28;20017;-59
2023/03/21 09:06:51;;;;;;;5.15;2.63;;;12.50;99.90;;;;;;10057614;28;20415;-62
2023/03/21 09:11:42;;;;;;;6.80;3.33;;;12.50;99.90;;;;;;10057449;28;20034;-61
2023/03/21 09:16:33;;;;;;;5.72;2.88;;;12.40;99.90;;;;;;10061046;28;20502;-60
2023/03/21 09:21:26;;;;;;;5.40;3.47;;;12.60;99.90;;;;;;10085667;28;20028;-60
2023/03/21 09:26:18;;;;;;;7.78;2.78;;;12.70;99.90;;;;;;10100216;28;20033;-58
2023/03/21 09:31:10;;;;;;;5.88;3.28;;;12.80;99.90;;;;;;10090639;28;20116;-59
2023/03/21 09:36:02;;;;;;;6.10;2.83;;;13.00;99.90;;;;;;10094655;28;20522;-61
2023/03/21 09:41:17;;;;;;;5.75;3.35;;;13.20;99.90;;;;;;10092521;28;20026;-58
2023/03/21 09:46:22;;;;;;;3.78;2.70;;;13.20;99.90;;;;;;10065902;28;20166;-61
2023/03/21 09:51:17;;;;;;;3.92;2.58;;;13.40;99.90;;;;;;10074131;28;20049;-61
2023/03/21 09:56:13;;;;;;;5.07;3.15;;;13.50;99.90;;;;;;10085631;28;20033;-58
2023/03/21 10:01:26;;;;;;;4.85;3.38;;;13.70;99.90;;;;;;10083098;28;20029;-59
2023/03/21 10:06:17;;;;;;;4.15;2.60;;;13.80;99.90;;;;;;10058367;28;20036;-58
2023/03/21 10:11:31;;;;;;;2.75;2.13;;;14.00;99.90;;;;;;10057848;28;20030;-53
2023/03/21 10:16:39;;;;;;;5.22;2.42;;;13.80;99.90;;;;;;10058299;28;20104;-59
2023/03/21 10:21:30;;;;;;;3.33;2.35;;;14.00;99.90;;;;;;10060662;28;20541;-60
2023/03/21 10:26:26;;;;;;;4.45;2.58;;;14.30;99.90;;;;;;10063587;28;20029;-60
2023/03/21 10:31:24;;;;;;;4.78;3.25;;;14.50;99.90;;;;;;10065416;28;20044;-60
2023/03/21 10:36:19;;;;;;;3.35;2.47;;;14.80;99.90;;;;;;10099534;28;20078;-59
2023/03/21 10:41:12;;;;;;;3.75;2.50;;;14.70;99.90;;;;;;10097584;28;20037;-59
2023/03/21 10:46:22;;;;;;;5.35;2.47;;;14.50;99.90;;;;;;10084352;28;20029;-59
2023/03/21 10:51:20;;;;;;;4.95;2.40;;;14.70;99.90;;;;;;10069168;28;20086;-58
2023/03/21 10:56:11;;;;;;;2.80;1.75;;;14.90;99.90;;;;;;10094460;28;20068;-58
2023/03/21 11:01:04;;;;;;;3.97;2.15;;;15.10;99.90;;;;;;10098073;28;20029;-61
2023/03/21 11:06:00;;;;;;;5.10;2.50;;;15.30;99.90;;;;;;10084805;28;20072;-59
2023/03/21 11:11:06;;;;;;;5.18;2.17;;;15.40;99.90;;;;;;10086942;28;20108;-60
2023/03/21 11:16:10;;;;;;;2.58;2.15;;;15.30;99.90;;;;;;10072186;28;20025;-62
2023/03/21 11:21:06;;;;;;;4.22;2.33;;;15.30;99.90;;;;;;10051776;28;20393;-59
2023/03/21 11:25:59;;;;;;;5.75;2.38;;;15.50;99.90;;;;;;10063285;28;20555;-61
2023/03/21 11:30:59;;;;;;;3.42;2.33;;;15.70;99.90;;;;;;10073787;28;20030;-58
2023/03/21 11:36:05;;;;;;;4.65;2.55;;;15.90;99.90;;;;;;10057193;28;20404;-59
2023/03/21 11:41:00;;;;;;;4.07;2.47;;;16.10;99.90;;;;;;10083324;28;20029;-58
2023/03/21 11:46:08;;;;;;;4.10;2.63;;;16.40;99.90;;;;;;10066664;28;20038;-60
2023/03/21 11:51:15;;;;;;;3.90;3.05;;;16.60;99.70;;;;;;10075977;28;20594;-60
2023/03/21 11:56:22;;;;;;;4.40;2.45;;;17.00;99.50;;;;;;10085800;28;20037;-61
2023/03/21 12:01:51;;;;;;;5.07;2.58;;;17.20;99.20;;;;;;10078406;28;20487;-58
2023/03/21 12:07:07;;;;;;;4.68;2.25;;;17.20;99.00;;;;;;10086617;28;20060;-59
2023/03/21 12:12:33;;;;;;;3.75;2.67;;;17.30;99.20;;;;;;10093949;28;20303;-59
2023/03/21 12:17:31;;;;;;;3.55;2.70;;;17.20;99.00;;;;;;10035830;28;20041;-59
2023/03/21 12:22:56;;;;;;;4.90;2.33;;;17.10;99.00;;;;;;10074318;28;20029;-61
2023/03/21 12:28:16;;;;;;;4.20;2.60;;;17.30;98.80;;;;;;10087582;28;20116;-63
2023/03/21 12:33:20;;;;;;;3.45;2.45;;;17.60;98.40;;;;;;10090355;28;20049;-60
2023/03/21 12:38:16;;;;;;;3.65;2.78;;;18.00;98.40;;;;;;10085827;28;20041;-61
2023/03/21 12:43:30;;;;;;;3.92;2.70;;;17.90;98.20;;;;;;10063993;28;20022;-63
2023/03/21 12:48:37;;;;;;;4.82;2.63;;;17.90;98.00;;;;;;10062555;28;20411;-60
2023/03/21 12:53:41;;;;;;;2.88;1.90;;;17.80;97.90;;;;;;10066638;28;20451;-60
2023/03/21 12:58:45;;;;;;;3.40;2.17;;;17.70;97.90;;;;;;10063179;28;20096;-62
2023/03/21 13:03:42;;;;;;;5.07;2.63;;;17.40;97.90;;;;;;10087061;28;20045;-60
2023/03/21 13:08:42;;;;;;;3.55;2.42;;;17.40;97.80;;;;;;10064172;28;20018;-62
2023/03/21 13:13:43;;;;;;;6.68;2.30;;;17.30;97.60;;;;;;10061278;28;20026;-61
2023/03/21 13:19:01;;;;;;;4.68;2.67;;;17.20;97.70;;;;;;10060572;28;20021;-59
2023/03/21 13:24:00;;;;;;;4.78;3.00;;;16.90;97.50;;;;;;10067993;28;20071;-62
2023/03/21 13:28:51;;;;;;;3.47;2.20;;;17.00;97.40;;;;;;10070001;28;20046;-59
2023/03/21 13:33:46;;;;;;;4.30;2.65;;;17.00;97.30;;;;;;10057797;28;20060;-62
2023/03/21 13:38:38;;;;;;;3.20;1.67;;;16.80;97.30;;;;;;10060314;28;20042;-60
2023/03/21 13:43:50;;;;;;;2.63;1.75;;;16.90;97.20;;;;;;10061201;28;20026;-62
2023/03/21 13:48:52;;;;;;;2.55;1.88;;;16.80;97.10;;;;;;10060274;28;20025;-59
2023/03/21 13:54:02;;;;;;;4.43;1.95;;;16.90;97.00;;;;;;10060003;28;20057;-62
2023/03/21 13:58:57;;;;;;;3.95;2.05;;;17.00;96.90;;;;;;10058086;28;20071;-62
2023/03/21 14:03:49;;;;;;;3.97;1.65;;;17.00;97.00;;;;;;10059108;28;20066;-60
2023/03/21 14:08:43;;;;;;;5.07;1.88;;;17.00;96.90;;;;;;10056335;28;20032;-62
2023/03/21 14:13:35;;;;;;;2.80;2.10;;;17.00;96.80;;;;;;10065708;28;20124;-62
2023/03/21 14:18:27;;;;;;;4.03;1.45;;;16.90;96.80;;;;;;10058626;28;20175;-61
2023/03/21 14:23:18;;;;;;;2.25;1.30;;;16.90;96.70;;;;;;10062011;28;20069;-60
2023/03/21 14:28:19;;;;;;;1.75;1.50;;;17.00;96.60;;;;;;10058584;28;20014;-61
2023/03/21 14:33:30;;;;;;;2.50;1.70;;;17.10;96.40;;;;;;10056349;28;20029;-59
2023/03/21 14:38:24;;;;;;;2.22;1.30;;;17.00;96.30;;;;;;10058077;28;20017;-60
2023/03/21 14:43:15;;;;;;;4.53;1.75;;;16.90;96.30;;;;;;10061254;28;20036;-60
2023/03/21 14:48:11;;;;;;;2.30;1.17;;;16.90;96.20;;;;;;10058700;28;20361;-62
2023/03/21 14:53:02;;;;;;;3.42;1.77;;;16.90;96.10;;;;;;10060465;28;20049;-59
2023/03/21 14:57:55;;;;;;;2.83;1.25;;;16.80;96.00;;;;;;10058511;28;20021;-60
2023/03/21 15:02:46;;;;;;;2.50;1.23;;;16.70;96.00;;;;;;10055818;28;20017;-60
2023/03/21 15:07:36;;;;;;;1.70;1.10;;;16.60;95.90;;;;;;10060432;28;20116;-59
2023/03/21 15:12:27;;;;;;;1.90;1.50;;;16.70;95.90;;;;;;10061235;28;20037;-60
2023/03/21 15:17:19;;;;;;;2.03;1.30;;;16.60;95.80;;;;;;10064435;28;20087;-58
2023/03/21 15:22:33;;;;;;;2.35;1.10;;;16.50;95.70;;;;;;10067997;28;20024;-59
2023/03/21 15:27:24;;;;;;;3.85;1.58;;;16.50;95.70;;;;;;10067745;28;20018;-60
2023/03/21 15:32:19;;;;;;;2.63;1.52;;;16.40;95.70;;;;;;10066156;28;20412;-59
2023/03/21 15:37:21;;;;;;;1.92;1.40;;;16.40;95.70;;;;;;10066225;28;20421;-62
2023/03/21 15:42:28;;;;;;;3.47;1.42;;;16.40;95.70;;;;;;10064057;28;20487;-59
2023/03/21 15:47:41;;;;;;;1.92;1.23;;;16.40;95.90;;;;;;10067771;28;20121;-58
2023/03/21 15:52:31;;;;;;;2.60;1.88;;;16.50;96.00;;;;;;10067042;28;20064;-59
2023/03/21 15:57:32;;;;;;;3.42;1.60;;;16.40;96.00;;;;;;10067686;28;20024;-59
2023/03/21 16:02:28;;;;;;;2.65;1.35;;;16.40;96.10;;;;;;10061449;28;20032;-61
2023/03/21 16:07:18;;;;;;;2.67;1.67;;;16.30;96.20;;;;;;10066037;28;20048;-61
2023/03/21 16:12:11;;;;;;;3.40;1.45;;;16.30;96.30;;;;;;10064954;28;20040;-58
2023/03/21 16:17:26;;;;;;;3.28;1.67;;;16.40;96.30;;;;;;10067935;28;20032;-60
2023/03/21 16:22:18;;;;;;;2.67;1.52;;;16.30;96.30;;;;;;10065894;28;20079;-59
2023/03/21 16:27:11;;;;;;;4.07;1.52;;;16.40;96.30;;;;;;10063419;28;20028;-57
2023/03/21 16:32:04;;;;;;;2.80;1.50;;;16.30;96.30;;;;;;10062866;28;20033;-56
2023/03/21 16:36:55;;;;;;;3.03;1.63;;;16.30;96.30;;;;;;10091683;28;20444;-56
2023/03/21 16:41:47;;;;;;;2.38;1.38;;;16.20;96.30;;;;;;10069173;28;20017;-57
2023/03/21 16:46:38;;;;;;;1.70;1.60;;;16.10;96.30;;;;;;10075920;28;20471;-57
2023/03/21 16:51:35;;;;;;;2.47;1.20;;;16.10;96.40;;;;;;10063309;28;20106;-58
2023/03/21 16:56:30;;;;;;;1.85;1.30;;;16.10;96.30;;;;;;10093363;28;20033;-57
2023/03/21 17:01:28;;;;;;;3.72;1.48;;;16.00;96.30;;;;;;10095977;28;20117;-55
2023/03/21 17:06:24;;;;;;;3.45;1.23;;;16.00;96.30;;;;;;10098587;28;20037;-55
2023/03/21 17:11:15;;;;;;;;;;;16.00;96.30;;;;;;10084026;28;20037;-55
2023/03/21 17:16:06;;;;;;;1.85;1.33;;;16.00;96.30;;;;;;10091968;28;20340;-57
2023/03/21 17:20:57;;;;;;;3.83;1.70;;;16.00;96.30;;;;;;10099255;28;20036;-59
2023/03/21 17:25:48;;;;;;;3.05;1.95;;;15.90;96.30;;;;;;10065313;28;20025;-60
2023/03/21 17:30:38;;;;;;;3.70;2.13;;;15.90;96.40;;;;;;10079594;28;20040;-54
2023/03/21 17:35:29;;;;;;;5.53;2.50;;;15.80;96.40;;;;;;10077956;28;20078;-57
2023/03/21 17:40:24;;;;;;;4.97;2.25;;;15.80;96.40;;;;;;10086732;28;20033;-54
2023/03/21 17:45:16;;;;;;;3.08;2.20;;;15.80;96.50;;;;;;10063161;28;20111;-59
2023/03/21 17:50:33;;;;;;;3.50;2.05;;;15.70;96.40;;;;;;10079791;28;20041;-59
2023/03/21 17:55:24;;;;;;;3.25;1.73;;;15.70;96.50;;;;;;10082793;28;20127;-58
2023/03/21 18:00:21;;;;;;;3.75;2.05;;;15.60;96.50;;;;;;10089476;28;20044;-63
2023/03/21 18:05:12;;;;;;;3.25;2.00;;;15.60;96.50;;;;;;10085900;28;20035;-63
2023/03/21 18:10:03;;;;;;;7.90;2.45;;;15.60;96.50;;;;;;10095547;28;20116;-63
2023/03/21 18:14:54;;;;;;;2.63;1.77;;;15.50;96.50;;;;;;10056146;28;20184;-62
2023/03/21 18:19:46;;;;;;;3.10;1.98;;;15.50;96.60;;;;;;10056347;28;20100;-56
2023/03/21 18:24:37;;;;;;;4.53;1.90;;;15.50;96.60;;;;;;10055283;28;20051;-56
2023/03/21 18:29:29;;;;;;;3.72;2.33;;;15.50;96.60;;;;;;10091281;28;20507;-58
2023/03/21 18:34:20;;;;;;;4.18;2.50;;;15.40;96.60;;;;;;10061627;28;20038;-53
2023/03/21 18:39:12;;;;;;;5.07;3.13;;;15.50;96.70;;;;;;10073511;28;20503;-52
2023/03/21 18:44:02;;;;;;;6.85;3.90;;;15.50;96.70;;;;;;10072386;28;20411;-54
2023/03/21 18:48:53;;;;;;;5.60;2.85;;;15.40;96.80;;;;;;10076042;28;20033;-59
2023/03/21 18:53:44;;;;;;;7.43;3.78;;;15.40;96.90;;;;;;10084773;28;20045;-61
2023/03/21 18:58:35;;;;;;;6.65;3.55;;;15.40;97.00;;;;;;10089246;28;20032;-58
2023/03/21 19:03:25;;;;;;;6.95;3.97;;;15.40;96.90;;;;;;10096066;28;20345;-59
2023/03/21 19:08:16;;;;;;;5.68;3.50;;;15.40;97.00;;;;;;10092158;28;20078;-58
2023/03/21 19:13:07;;;;;;;5.60;3.08;;;15.30;97.10;;;;;;10079948;28;20511;-60
2023/03/21 19:17:57;;;;;;;7.90;3.70;;;15.30;97.20;;;;;;10067421;28;20033;-58
2023/03/21 19:22:48;;;;;;;5.25;3.47;;;15.30;97.30;;;;;;10052622;28;20029;-59
2023/03/21 19:27:39;;;;;;;8.57;4.32;;;15.30;97.30;;;;;;10086170;28;20083;-63
2023/03/21 19:32:29;;;;;;;6.43;3.88;;;15.20;97.40;;;;;;10088119;28;20112;-67
2023/03/21 19:37:20;;;;;;;6.88;3.92;;;15.20;97.40;;;;;;10062621;28;20117;-69
2023/03/21 19:42:11;;;;;;;5.53;3.63;;;15.20;97.50;;;;;;10062381;28;20581;-67
2023/03/21 19:47:02;;;;;;;10.63;5.90;;;15.20;97.60;;;;;;10066218;28;20046;-70
2023/03/21 19:51:54;;;;;;;8.57;4.00;;;15.20;97.60;;;;;;10065910;28;20496;-73
2023/03/21 19:56:46;;;;;;;6.72;3.63;;;15.10;97.60;;;;;;10043384;28;20030;-69
2023/03/21 20:01:37;;;;;;;7.13;2.95;;;15.20;97.70;;;;;;10080398;28;20041;-71
2023/03/21 20:06:28;;;;;;;4.22;2.88;;;15.00;97.70;;;;;;10083884;28;20021;-72
2023/03/21 20:11:19;;;;;;;7.22;3.63;;;15.00;97.70;;;;;;10077788;28;20064;-69
2023/03/21 20:16:10;;;;;;;7.57;3.30;;;14.90;97.70;;;;;;10066077;28;20034;-65
2023/03/21 20:21:01;;;;;;;5.47;3.13;;;14.90;97.80;;;;;;10069253;28;20121;-64
2023/03/21 20:25:52;;;;;;;6.75;4.05;;;14.80;97.80;;;;;;10076683;28;20538;-65
2023/03/21 20:30:47;;;;;;;4.85;2.40;;;14.80;97.80;;;;;;10060683;28;20014;-64
2023/03/21 20:35:39;;;;;;;4.13;2.35;;;14.70;97.90;;;;;;10078854;28;20131;-64
2023/03/21 20:40:30;;;;;;;5.53;2.85;;;14.70;97.90;;;;;;10071844;28;20198;-70
2023/03/21 20:45:21;;;;;;;4.47;3.15;;;14.60;97.90;;;;;;10067225;28;20603;-68
2023/03/21 20:50:13;;;;;;;5.50;2.63;;;14.60;98.00;;;;;;10071392;28;20059;-65
2023/03/21 20:55:07;;;;;;;3.75;2.33;;;14.60;97.90;;;;;;10081014;28;20044;-66
2023/03/21 20:59:58;;;;;;;4.05;2.10;;;14.60;97.90;;;;;;10062024;28;20087;-64
2023/03/21 21:04:49;;;;;;;6.55;1.83;;;14.70;97.70;;;;;;10064308;28;20034;-65
2023/03/21 21:09:39;;;;;;;3.72;1.80;;;14.70;97.70;;;;;;10062790;28;20455;-64
2023/03/21 21:14:30;;;;;;;2.15;1.95;;;14.70;97.60;;;;;;10073094;28;20071;-66
2023/03/21 21:19:20;;;;;;;4.05;1.60;;;14.80;97.50;;;;;;10070984;28;20566;-63
2023/03/21 21:24:11;;;;;;;3.70;1.77;;;14.80;97.50;;;;;;10070919;28;20120;-70
2023/03/21 21:29:03;;;;;;;2.00;1.40;;;14.80;97.40;;;;;;10086591;28;20108;-67
2023/03/21 21:33:54;;;;;;;2.95;1.73;;;14.80;97.30;;;;;;10084599;28;20040;-65
2023/03/21 21:38:47;;;;;;;2.78;1.73;;;14.70;97.20;;;;;;10079858;28;20033;-65
2023/03/21 21:43:38;;;;;;;8.27;3.40;;;14.70;97.20;;;;;;10071491;28;20036;-66
2023/03/21 21:48:28;;;;;;;8.63;4.05;;;14.70;97.10;;;;;;10075464;28;20041;-68
2023/03/21 21:53:20;;;;;;;7.90;3.42;;;14.50;97.20;;;;;;10080495;28;20054;-66
2023/03/21 21:58:12;;;;;;;4.85;2.95;;;14.50;97.20;;;;;;10083899;28;20381;-69
2023/03/21 22:03:03;;;;;;;7.47;3.03;;;14.40;97.20;;;;;;10086095;28;20089;-67
2023/03/21 22:07:54;;;;;;;6.43;3.38;;;14.40;97.30;;;;;;10085655;28;20096;-69
2023/03/21 22:12:45;;;;;;;6.32;3.25;;;14.40;97.30;;;;;;10065041;28;20131;-66
2023/03/21 22:17:35;;;;;;;5.53;3.85;;;14.50;97.30;;;;;;10056263;28;20496;-65
2023/03/21 22:22:26;;;;;;;12.52;4.95;;;14.50;97.40;;;;;;10087028;28;20116;-67
2023/03/21 22:27:17;;;;;;;8.02;3.83;;;14.50;97.40;;;;;;10097274;28;20575;-67
2023/03/21 22:32:08;;;;;;;8.10;4.47;;;14.40;97.50;;;;;;10079538;28;20041;-64
2023/03/21 22:36:59;;;;;;;6.68;4.10;;;14.40;97.60;;;;;;10094316;28;20022;-66
2023/03/21 22:41:49;;;;;;;6.45;3.70;;;14.40;97.60;;;;;;10098233;28;20123;-64
2023/03/21 22:46:40;;;;;;;6.88;4.03;;;14.40;97.60;;;;;;10090774;28;20021;-65
2023/03/21 22:51:31;;;;;;;8.25;3.60;;;14.40;97.70;;;;;;10089219;28;20499;-64
2023/03/21 22:56:21;;;;;;;7.97;3.35;;;14.40;97.70;;;;;;10083811;28;20022;-63
2023/03/21 23:01:12;;;;;;;6.55;3.72;;;14.40;97.80;;;;;;10087157;28;20025;-64
2023/03/21 23:06:03;;;;;;;5.65;3.80;;;14.30;97.90;;;;;;10079760;28;20049;-62
2023/03/21 23:10:53;;;;;;;7.38;4.80;;;14.30;97.90;;;;;;10102396;28;20065;-64
2023/03/21 23:15:44;;;;;;;7.70;4.22;;;14.30;98.00;;;;;;10084592;28;20488;-64
2023/03/21 23:20:35;;;;;;;5.93;3.90;;;14.20;98.10;;;;;;10069718;28;20116;-64
2023/03/21 23:25:27;;;;;;;4.38;3.30;;;14.20;98.20;;;;;;10074108;28;20024;-64
2023/03/21 23:30:18;;;;;;;6.55;3.90;;;14.20;98.20;;;;;;10100387;28;20079;-64
2023/03/21 23:35:09;;;;;;;5.00;3.40;;;14.10;98.30;;;;;;10087110;28;20033;-64
2023/03/21 23:40:00;;;;;;;5.43;2.88;;;14.10;98.30;;;;;;10103000;28;20025;-65
2023/03/21 23:44:50;;;;;;;3.75;2.50;;;14.10;98.40;;;;;;10096474;28;20028;-63
2023/03/21 23:49:43;;;;;;;3.42;2.47;;;14.00;98.50;;;;;;10095687;28;20045;-63
2023/03/21 23:54:34;;;;;;;5.63;2.83;;;14.00;98.40;;;;;;10099912;28;20566;-65
2023/03/21 23:59:26;;;;;;;4.28;2.00;;;14.00;98.40;;;;;;10097555;28;20108;-63
